sensor_id;sensor_type;location;lat;lon;timestamp;pressure;altitude;pressure_sealevel;temperature;humidity
77381;BME280;66439;50.106;10.996;2023-05-14T00:00:24;98826.83;;;13.70;60.51
77381;BME280;66439;50.106;10.996;2023-05-14T00:02:55;98828.69;;;13.59;60.71
77381;BME280;66439;50.106;10.996;2023-05-14T00:05:05;98831.00;;;13.52;60.64
77381;BME280;66439;50.106;10.996;2023-05-14T00:07:18;98827.98;;;13.47;60.93
77381;BME280;66439;50.106;10.996;2023-05-14T00:09:20;98827.02;;;13.45;61.41
77381;BME280;66439;50.106;10.996;2023-05-14T00:11:24;98827.52;;;13.45;61.48
77381;BME280;66439;50.106;10.996;2023-05-14T00:13:28;98824.80;;;13.46;61.42
77381;BME280;66439;50.106;10.996;2023-05-14T00:15:35;98823.38;;;13.46;61.44
77381;BME280;66439;50.106;10.996;2023-05-14T00:17:52;98815.55;;;13.43;61.48
77381;BME280;66439;50.106;10.996;2023-05-14T00:19:55;98815.95;;;13.41;61.36
77381;BME280;66439;50.106;10.996;2023-05-14T00:22:22;98817.66;;;13.40;61.46
77381;BME280;66439;50.106;10.996;2023-05-14T00:24:34;98810.83;;;13.35;61.02
77381;BME280;66439;50.106;10.996;2023-05-14T00:26:50;98810.23;;;13.27;61.13
77381;BME280;66439;50.106;10.996;2023-05-14T00:28:55;98808.80;;;13.24;61.44
77381;BME280;66439;50.106;10.996;2023-05-14T00:30:58;98805.48;;;13.23;61.63
77381;BME280;66439;50.106;10.996;2023-05-14T00:33:03;98805.33;;;13.23;61.53
77381;BME280;66439;50.106;10.996;2023-05-14T00:35:08;98804.95;;;13.22;61.31
77381;BME280;66439;50.106;10.996;2023-05-14T00:37:15;98803.23;;;13.18;61.29
77381;BME280;66439;50.106;10.996;2023-05-14T00:39:20;98800.19;;;13.15;61.20
77381;BME280;66439;50.106;10.996;2023-05-14T00:41:25;98800.42;;;13.13;61.12
77381;BME280;66439;50.106;10.996;2023-05-14T00:43:28;98799.15;;;13.11;61.38
77381;BME280;66439;50.106;10.996;2023-05-14T00:45:35;98800.96;;;13.09;61.11
77381;BME280;66439;50.106;10.996;2023-05-14T00:47:41;98798.90;;;13.06;60.86
77381;BME280;66439;50.106;10.996;2023-05-14T00:49:52;98798.34;;;13.02;61.10
77381;BME280;66439;50.106;10.996;2023-05-14T00:51:59;98795.24;;;12.98;61.37
77381;BME280;66439;50.106;10.996;2023-05-14T00:54:08;98799.34;;;12.96;61.44
77381;BME280;66439;50.106;10.996;2023-05-14T00:56:21;98800.30;;;12.92;61.44
77381;BME280;66439;50.106;10.996;2023-05-14T00:58:26;98794.99;;;12.90;61.63
77381;BME280;66439;50.106;10.996;2023-05-14T01:00:34;98796.10;;;12.89;61.68
77381;BME280;66439;50.106;10.996;2023-05-14T01:02:45;98792.92;;;12.89;61.46
77381;BME280;66439;50.106;10.996;2023-05-14T01:04:54;98793.64;;;12.83;61.33
77381;BME280;66439;50.106;10.996;2023-05-14T01:07:17;98802.30;;;12.78;61.55
77381;BME280;66439;50.106;10.996;2023-05-14T01:09:54;98805.45;;;12.76;61.76
77381;BME280;66439;50.106;10.996;2023-05-14T01:13:12;98806.62;;;12.74;61.77
77381;BME280;66439;50.106;10.996;2023-05-14T01:15:23;98806.65;;;12.72;61.80
77381;BME280;66439;50.106;10.996;2023-05-14T01:17:32;98806.25;;;12.66;61.82
77381;BME280;66439;50.106;10.996;2023-05-14T01:19:46;98810.67;;;12.61;61.77
77381;BME280;66439;50.106;10.996;2023-05-14T01:21:52;98813.25;;;12.59;62.29
77381;BME280;66439;50.106;10.996;2023-05-14T01:23:56;98811.21;;;12.61;62.60
77381;BME280;66439;50.106;10.996;2023-05-14T01:26:00;98813.27;;;12.64;62.58
77381;BME280;66439;50.106;10.996;2023-05-14T01:28:15;98811.95;;;12.63;62.31
77381;BME280;66439;50.106;10.996;2023-05-14T01:30:38;98808.09;;;12.66;62.76
77381;BME280;66439;50.106;10.996;2023-05-14T01:32:49;98803.73;;;12.70;62.72
77381;BME280;66439;50.106;10.996;2023-05-14T01:35:00;98802.13;;;12.71;62.64
77381;BME280;66439;50.106;10.996;2023-05-14T01:37:23;98799.14;;;12.71;62.47
77381;BME280;66439;50.106;10.996;2023-05-14T01:39:30;98798.92;;;12.70;62.69
77381;BME280;66439;50.106;10.996;2023-05-14T01:41:37;98798.76;;;12.68;62.35
77381;BME280;66439;50.106;10.996;2023-05-14T01:43:44;98797.77;;;12.63;62.36
77381;BME280;66439;50.106;10.996;2023-05-14T01:46:01;98792.50;;;12.56;62.29
77381;BME280;66439;50.106;10.996;2023-05-14T01:48:09;98798.33;;;12.51;62.60
77381;BME280;66439;50.106;10.996;2023-05-14T01:50:23;98795.59;;;12.46;62.55
77381;BME280;66439;50.106;10.996;2023-05-14T01:52:28;98797.71;;;12.41;62.96
77381;BME280;66439;50.106;10.996;2023-05-14T01:54:37;98798.86;;;12.40;63.24
77381;BME280;66439;50.106;10.996;2023-05-14T01:56:41;98793.80;;;12.40;62.94
77381;BME280;66439;50.106;10.996;2023-05-14T01:58:48;98795.30;;;12.36;62.95
77381;BME280;66439;50.106;10.996;2023-05-14T02:00:51;98795.83;;;12.36;63.39
77381;BME280;66439;50.106;10.996;2023-05-14T02:03:00;98789.67;;;12.36;62.96
77381;BME280;66439;50.106;10.996;2023-05-14T02:05:08;98789.65;;;12.33;62.97
77381;BME280;66439;50.106;10.996;2023-05-14T02:07:15;98790.42;;;12.27;63.16
77381;BME280;66439;50.106;10.996;2023-05-14T02:09:21;98790.73;;;12.20;63.51
77381;BME280;66439;50.106;10.996;2023-05-14T02:11:29;98786.98;;;12.13;63.65
77381;BME280;66439;50.106;10.996;2023-05-14T02:13:34;98786.09;;;12.06;63.83
77381;BME280;66439;50.106;10.996;2023-05-14T02:15:37;98785.94;;;12.03;64.13
77381;BME280;66439;50.106;10.996;2023-05-14T02:17:48;98780.75;;;12.01;64.21
77381;BME280;66439;50.106;10.996;2023-05-14T02:19:52;98784.67;;;11.99;64.39
77381;BME280;66439;50.106;10.996;2023-05-14T02:21:58;98779.70;;;11.96;64.45
77381;BME280;66439;50.106;10.996;2023-05-14T02:24:04;98782.30;;;11.96;64.65
77381;BME280;66439;50.106;10.996;2023-05-14T02:26:11;98779.27;;;11.94;64.68
77381;BME280;66439;50.106;10.996;2023-05-14T02:28:19;98779.55;;;11.95;64.81
77381;BME280;66439;50.106;10.996;2023-05-14T02:30:23;98777.77;;;11.96;64.85
77381;BME280;66439;50.106;10.996;2023-05-14T02:32:27;98773.90;;;11.96;64.93
77381;BME280;66439;50.106;10.996;2023-05-14T02:34:31;98775.70;;;11.91;64.97
77381;BME280;66439;50.106;10.996;2023-05-14T02:36:38;98774.95;;;11.86;64.97
77381;BME280;66439;50.106;10.996;2023-05-14T02:38:41;98774.81;;;11.82;65.10
77381;BME280;66439;50.106;10.996;2023-05-14T02:40:56;98777.65;;;11.82;65.26
77381;BME280;66439;50.106;10.996;2023-05-14T02:43:04;98778.67;;;11.80;65.22
77381;BME280;66439;50.106;10.996;2023-05-14T02:45:11;98780.49;;;11.78;65.35
77381;BME280;66439;50.106;10.996;2023-05-14T02:47:15;98777.89;;;11.79;65.33
77381;BME280;66439;50.106;10.996;2023-05-14T02:49:25;98776.63;;;11.81;65.43
77381;BME280;66439;50.106;10.996;2023-05-14T02:51:28;98773.51;;;11.82;65.59
77381;BME280;66439;50.106;10.996;2023-05-14T02:53:35;98775.48;;;11.80;65.52
77381;BME280;66439;50.106;10.996;2023-05-14T02:55:49;98773.26;;;11.79;65.76
77381;BME280;66439;50.106;10.996;2023-05-14T02:57:59;98773.50;;;11.79;65.73
77381;BME280;66439;50.106;10.996;2023-05-14T03:00:03;98773.84;;;11.78;65.79
77381;BME280;66439;50.106;10.996;2023-05-14T03:02:08;98775.86;;;11.74;65.89
77381;BME280;66439;50.106;10.996;2023-05-14T03:04:16;98774.31;;;11.71;65.91
77381;BME280;66439;50.106;10.996;2023-05-14T03:06:25;98771.45;;;11.68;65.89
77381;BME280;66439;50.106;10.996;2023-05-14T03:08:28;98766.09;;;11.64;66.08
77381;BME280;66439;50.106;10.996;2023-05-14T03:10:37;98768.42;;;11.63;66.05
77381;BME280;66439;50.106;10.996;2023-05-14T03:15:26;98772.73;;;11.57;65.88
77381;BME280;66439;50.106;10.996;2023-05-14T03:17:30;98775.11;;;11.54;65.91
77381;BME280;66439;50.106;10.996;2023-05-14T03:19:36;98771.66;;;11.53;66.03
77381;BME280;66439;50.106;10.996;2023-05-14T03:21:46;98772.73;;;11.53;65.86
77381;BME280;66439;50.106;10.996;2023-05-14T03:23:55;98774.00;;;11.50;65.66
77381;BME280;66439;50.106;10.996;2023-05-14T03:26:00;98778.33;;;11.42;65.65
77381;BME280;66439;50.106;10.996;2023-05-14T03:28:04;98777.08;;;11.34;65.62
77381;BME280;66439;50.106;10.996;2023-05-14T03:30:11;98777.98;;;11.30;65.85
77381;BME280;66439;50.106;10.996;2023-05-14T03:32:16;98776.01;;;11.29;65.73
77381;BME280;66439;50.106;10.996;2023-05-14T03:34:21;98775.95;;;11.28;65.82
77381;BME280;66439;50.106;10.996;2023-05-14T03:36:25;98774.98;;;11.25;65.81
77381;BME280;66439;50.106;10.996;2023-05-14T03:38:30;98772.16;;;11.20;65.82
77381;BME280;66439;50.106;10.996;2023-05-14T03:40:46;98774.55;;;11.18;65.97
77381;BME280;66439;50.106;10.996;2023-05-14T03:42:50;98779.77;;;11.16;65.89
77381;BME280;66439;50.106;10.996;2023-05-14T03:44:59;98777.09;;;11.13;66.06
77381;BME280;66439;50.106;10.996;2023-05-14T03:47:02;98779.92;;;11.11;66.15
77381;BME280;66439;50.106;10.996;2023-05-14T03:49:06;98783.31;;;11.11;66.03
77381;BME280;66439;50.106;10.996;2023-05-14T03:51:13;98781.64;;;11.09;66.05
77381;BME280;66439;50.106;10.996;2023-05-14T03:53:21;98780.56;;;11.08;66.11
77381;BME280;66439;50.106;10.996;2023-05-14T03:55:25;98781.16;;;11.10;66.40
77381;BME280;66439;50.106;10.996;2023-05-14T03:57:28;98782.86;;;11.14;66.30
77381;BME280;66439;50.106;10.996;2023-05-14T03:59:33;98789.01;;;11.18;66.28
77381;BME280;66439;50.106;10.996;2023-05-14T04:01:37;98782.83;;;11.25;66.33
77381;BME280;66439;50.106;10.996;2023-05-14T04:03:43;98782.75;;;11.29;66.27
77381;BME280;66439;50.106;10.996;2023-05-14T04:05:47;98781.55;;;11.33;66.05
77381;BME280;66439;50.106;10.996;2023-05-14T04:07:51;98776.73;;;11.34;65.66
77381;BME280;66439;50.106;10.996;2023-05-14T04:10:18;98776.69;;;11.34;65.67
77381;BME280;66439;50.106;10.996;2023-05-14T04:12:21;98777.64;;;11.36;65.86
77381;BME280;66439;50.106;10.996;2023-05-14T04:14:25;98777.83;;;11.40;66.08
77381;BME280;66439;50.106;10.996;2023-05-14T04:16:28;98778.62;;;11.45;66.17
77381;BME280;66439;50.106;10.996;2023-05-14T04:18:33;98779.38;;;11.48;65.78
77381;BME280;66439;50.106;10.996;2023-05-14T04:20:38;98777.38;;;11.51;65.85
77381;BME280;66439;50.106;10.996;2023-05-14T04:22:47;98778.70;;;11.52;65.65
77381;BME280;66439;50.106;10.996;2023-05-14T04:24:53;98779.33;;;11.53;65.66
77381;BME280;66439;50.106;10.996;2023-05-14T04:26:57;98781.33;;;11.57;65.97
77381;BME280;66439;50.106;10.996;2023-05-14T04:29:01;98780.23;;;11.61;65.94
77381;BME280;66439;50.106;10.996;2023-05-14T04:31:05;98783.17;;;11.65;65.78
77381;BME280;66439;50.106;10.996;2023-05-14T04:33:08;98782.21;;;11.67;65.59
77381;BME280;66439;50.106;10.996;2023-05-14T04:35:12;98783.27;;;11.70;65.79
77381;BME280;66439;50.106;10.996;2023-05-14T04:37:15;98778.80;;;11.69;65.58
77381;BME280;66439;50.106;10.996;2023-05-14T04:39:19;98780.55;;;11.64;65.50
77381;BME280;66439;50.106;10.996;2023-05-14T04:41:37;98780.98;;;11.59;65.65
77381;BME280;66439;50.106;10.996;2023-05-14T04:43:42;98781.08;;;11.56;65.88
77381;BME280;66439;50.106;10.996;2023-05-14T04:45:46;98783.92;;;11.55;65.95
77381;BME280;66439;50.106;10.996;2023-05-14T04:47:49;98784.30;;;11.56;65.88
77381;BME280;66439;50.106;10.996;2023-05-14T04:49:54;98781.65;;;11.57;65.86
77381;BME280;66439;50.106;10.996;2023-05-14T04:52:00;98782.39;;;11.60;66.06
77381;BME280;66439;50.106;10.996;2023-05-14T04:54:03;98780.62;;;11.63;66.15
77381;BME280;66439;50.106;10.996;2023-05-14T04:56:08;98780.98;;;11.65;66.04
77381;BME280;66439;50.106;10.996;2023-05-14T04:58:16;98782.27;;;11.68;66.10
77381;BME280;66439;50.106;10.996;2023-05-14T05:00:19;98780.88;;;11.68;66.02
77381;BME280;66439;50.106;10.996;2023-05-14T05:02:27;98779.80;;;11.66;66.25
77381;BME280;66439;50.106;10.996;2023-05-14T05:04:31;98780.95;;;11.67;66.24
77381;BME280;66439;50.106;10.996;2023-05-14T05:06:35;98782.14;;;11.70;66.50
77381;BME280;66439;50.106;10.996;2023-05-14T05:08:38;98780.56;;;11.76;66.49
77381;BME280;66439;50.106;10.996;2023-05-14T05:10:44;98780.65;;;11.81;66.47
77381;BME280;66439;50.106;10.996;2023-05-14T05:12:47;98774.27;;;11.84;66.33
77381;BME280;66439;50.106;10.996;2023-05-14T05:14:56;98770.99;;;11.92;66.23
77381;BME280;66439;50.106;10.996;2023-05-14T05:17:04;98770.45;;;11.98;65.99
77381;BME280;66439;50.106;10.996;2023-05-14T05:19:13;98769.30;;;12.03;65.92
77381;BME280;66439;50.106;10.996;2023-05-14T05:21:16;98770.06;;;12.05;65.67
77381;BME280;66439;50.106;10.996;2023-05-14T05:23:25;98770.67;;;12.10;65.68
77381;BME280;66439;50.106;10.996;2023-05-14T05:25:29;98769.73;;;12.15;65.62
77381;BME280;66439;50.106;10.996;2023-05-14T05:27:36;98769.85;;;12.18;65.55
77381;BME280;66439;50.106;10.996;2023-05-14T05:29:44;98769.34;;;12.21;65.42
77381;BME280;66439;50.106;10.996;2023-05-14T05:31:48;98768.66;;;12.24;65.19
77381;BME280;66439;50.106;10.996;2023-05-14T05:33:55;98770.06;;;12.29;65.25
77381;BME280;66439;50.106;10.996;2023-05-14T05:35:58;98765.11;;;12.36;65.21
77381;BME280;66439;50.106;10.996;2023-05-14T05:38:08;98762.59;;;12.44;65.03
77381;BME280;66439;50.106;10.996;2023-05-14T05:40:13;98759.70;;;12.48;64.97
77381;BME280;66439;50.106;10.996;2023-05-14T05:42:20;98760.93;;;12.54;64.94
77381;BME280;66439;50.106;10.996;2023-05-14T05:44:24;98759.45;;;12.60;64.90
77381;BME280;66439;50.106;10.996;2023-05-14T05:46:33;98761.27;;;12.65;64.85
77381;BME280;66439;50.106;10.996;2023-05-14T05:48:40;98762.61;;;12.72;64.51
77381;BME280;66439;50.106;10.996;2023-05-14T05:50:54;98763.45;;;12.73;64.53
77381;BME280;66439;50.106;10.996;2023-05-14T05:52:59;98763.17;;;12.76;64.27
77381;BME280;66439;50.106;10.996;2023-05-14T05:55:03;98763.40;;;12.78;64.32
77381;BME280;66439;50.106;10.996;2023-05-14T05:57:15;98761.42;;;12.82;64.35
77381;BME280;66439;50.106;10.996;2023-05-14T05:59:19;98755.61;;;12.86;64.24
77381;BME280;66439;50.106;10.996;2023-05-14T06:01:27;98754.73;;;12.90;64.17
77381;BME280;66439;50.106;10.996;2023-05-14T06:03:33;98755.42;;;12.96;63.90
77381;BME280;66439;50.106;10.996;2023-05-14T06:05:38;98755.35;;;12.99;63.76
77381;BME280;66439;50.106;10.996;2023-05-14T06:07:44;98756.29;;;13.04;63.92
77381;BME280;66439;50.106;10.996;2023-05-14T06:09:50;98753.14;;;13.08;63.92
77381;BME280;66439;50.106;10.996;2023-05-14T06:11:55;98757.23;;;13.16;63.88
77381;BME280;66439;50.106;10.996;2023-05-14T06:14:00;98753.98;;;13.21;63.78
77381;BME280;66439;50.106;10.996;2023-05-14T06:16:06;98759.83;;;13.22;63.61
77381;BME280;66439;50.106;10.996;2023-05-14T06:18:09;98760.61;;;13.27;63.70
77381;BME280;66439;50.106;10.996;2023-05-14T06:20:14;98761.13;;;13.30;63.46
77381;BME280;66439;50.106;10.996;2023-05-14T06:22:19;98763.38;;;13.32;63.29
77381;BME280;66439;50.106;10.996;2023-05-14T06:24:26;98760.37;;;13.39;63.00
77381;BME280;66439;50.106;10.996;2023-05-14T06:26:51;98759.90;;;13.45;62.95
77381;BME280;66439;50.106;10.996;2023-05-14T06:28:55;98757.32;;;13.50;62.72
77381;BME280;66439;50.106;10.996;2023-05-14T06:31:02;98756.10;;;13.52;62.56
77381;BME280;66439;50.106;10.996;2023-05-14T06:33:06;98759.02;;;13.56;62.37
77381;BME280;66439;50.106;10.996;2023-05-14T06:35:12;98758.56;;;13.62;62.24
77381;BME280;66439;50.106;10.996;2023-05-14T06:37:18;98755.36;;;13.66;62.08
77381;BME280;66439;50.106;10.996;2023-05-14T06:39:26;98759.80;;;13.70;61.92
77381;BME280;66439;50.106;10.996;2023-05-14T06:41:31;98761.09;;;13.75;61.60
77381;BME280;66439;50.106;10.996;2023-05-14T06:43:35;98758.80;;;13.79;61.64
77381;BME280;66439;50.106;10.996;2023-05-14T06:45:49;98759.64;;;13.86;61.71
77381;BME280;66439;50.106;10.996;2023-05-14T06:47:55;98756.89;;;13.92;61.20
77381;BME280;66439;50.106;10.996;2023-05-14T06:49:59;98755.01;;;13.97;60.77
77381;BME280;66439;50.106;10.996;2023-05-14T06:52:07;98757.44;;;14.00;60.16
77381;BME280;66439;50.106;10.996;2023-05-14T06:54:14;98753.45;;;14.06;60.02
77381;BME280;66439;50.106;10.996;2023-05-14T06:56:28;98755.47;;;14.12;59.94
77381;BME280;66439;50.106;10.996;2023-05-14T06:58:40;98752.05;;;14.17;59.37
77381;BME280;66439;50.106;10.996;2023-05-14T07:00:52;98755.03;;;14.20;59.41
77381;BME280;66439;50.106;10.996;2023-05-14T07:02:56;98759.50;;;14.23;59.20
77381;BME280;66439;50.106;10.996;2023-05-14T07:05:03;98758.61;;;14.29;59.06
77381;BME280;66439;50.106;10.996;2023-05-14T07:07:11;98760.50;;;14.32;58.91
77381;BME280;66439;50.106;10.996;2023-05-14T07:09:17;98758.40;;;14.35;58.67
77381;BME280;66439;50.106;10.996;2023-05-14T07:11:20;98757.13;;;14.40;58.29
77381;BME280;66439;50.106;10.996;2023-05-14T07:13:26;98755.55;;;14.43;58.01
77381;BME280;66439;50.106;10.996;2023-05-14T07:15:32;98754.30;;;14.46;58.12
77381;BME280;66439;50.106;10.996;2023-05-14T07:17:38;98754.96;;;14.52;58.31
77381;BME280;66439;50.106;10.996;2023-05-14T07:19:42;98752.20;;;14.58;58.05
77381;BME280;66439;50.106;10.996;2023-05-14T07:21:45;98751.54;;;14.64;57.84
77381;BME280;66439;50.106;10.996;2023-05-14T07:23:52;98752.44;;;14.68;57.73
77381;BME280;66439;50.106;10.996;2023-05-14T07:25:57;98751.78;;;14.68;57.44
77381;BME280;66439;50.106;10.996;2023-05-14T07:28:00;98748.20;;;14.68;57.43
77381;BME280;66439;50.106;10.996;2023-05-14T07:30:05;98746.88;;;14.68;57.27
77381;BME280;66439;50.106;10.996;2023-05-14T07:32:11;98745.40;;;14.68;57.28
77381;BME280;66439;50.106;10.996;2023-05-14T07:34:17;98747.55;;;14.66;57.03
77381;BME280;66439;50.106;10.996;2023-05-14T07:36:20;98745.73;;;14.67;57.06
77381;BME280;66439;50.106;10.996;2023-05-14T07:38:27;98741.70;;;14.64;57.00
77381;BME280;66439;50.106;10.996;2023-05-14T07:40:35;98742.48;;;14.64;56.95
77381;BME280;66439;50.106;10.996;2023-05-14T07:42:43;98745.73;;;14.65;56.74
77381;BME280;66439;50.106;10.996;2023-05-14T07:44:53;98747.66;;;14.61;56.47
77381;BME280;66439;50.106;10.996;2023-05-14T07:46:59;98741.46;;;14.59;56.25
77381;BME280;66439;50.106;10.996;2023-05-14T07:49:07;98745.21;;;14.57;56.30
77381;BME280;66439;50.106;10.996;2023-05-14T07:51:10;98745.21;;;14.55;56.44
77381;BME280;66439;50.106;10.996;2023-05-14T07:53:15;98741.06;;;14.56;56.64
77381;BME280;66439;50.106;10.996;2023-05-14T07:55:20;98738.34;;;14.56;56.56
77381;BME280;66439;50.106;10.996;2023-05-14T07:57:25;98742.58;;;14.58;56.57
77381;BME280;66439;50.106;10.996;2023-05-14T07:59:32;98741.12;;;14.61;56.75
77381;BME280;66439;50.106;10.996;2023-05-14T08:01:36;98739.35;;;14.62;56.65
77381;BME280;66439;50.106;10.996;2023-05-14T08:03:42;98742.48;;;14.64;56.73
77381;BME280;66439;50.106;10.996;2023-05-14T08:05:45;98741.21;;;14.64;56.54
77381;BME280;66439;50.106;10.996;2023-05-14T08:07:54;98740.09;;;14.66;56.48
77381;BME280;66439;50.106;10.996;2023-05-14T08:09:57;98740.25;;;14.67;56.60
77381;BME280;66439;50.106;10.996;2023-05-14T08:12:02;98741.56;;;14.69;56.58
77381;BME280;66439;50.106;10.996;2023-05-14T08:14:17;98744.86;;;14.72;56.56
77381;BME280;66439;50.106;10.996;2023-05-14T08:16:36;98745.06;;;14.70;56.21
77381;BME280;66439;50.106;10.996;2023-05-14T08:18:40;98744.98;;;14.69;56.25
77381;BME280;66439;50.106;10.996;2023-05-14T08:20:47;98744.31;;;14.71;56.32
77381;BME280;66439;50.106;10.996;2023-05-14T08:22:50;98739.05;;;14.73;56.39
77381;BME280;66439;50.106;10.996;2023-05-14T08:24:55;98742.10;;;14.77;56.44
77381;BME280;66439;50.106;10.996;2023-05-14T08:27:00;98733.65;;;14.79;56.28
77381;BME280;66439;50.106;10.996;2023-05-14T08:29:06;98734.52;;;14.78;56.13
77381;BME280;66439;50.106;10.996;2023-05-14T08:31:12;98736.33;;;14.75;56.28
77381;BME280;66439;50.106;10.996;2023-05-14T08:33:21;98731.27;;;14.75;56.23
77381;BME280;66439;50.106;10.996;2023-05-14T08:35:25;98731.55;;;14.76;56.14
77381;BME280;66439;50.106;10.996;2023-05-14T08:37:33;98727.11;;;14.75;56.26
77381;BME280;66439;50.106;10.996;2023-05-14T08:39:46;98729.91;;;14.75;56.14
77381;BME280;66439;50.106;10.996;2023-05-14T08:41:50;98728.95;;;14.78;56.13
77381;BME280;66439;50.106;10.996;2023-05-14T08:44:13;98721.08;;;14.81;55.93
77381;BME280;66439;50.106;10.996;2023-05-14T08:46:16;98723.91;;;14.82;56.01
77381;BME280;66439;50.106;10.996;2023-05-14T08:48:22;98723.44;;;14.82;56.13
77381;BME280;66439;50.106;10.996;2023-05-14T08:50:29;98720.21;;;14.83;55.98
77381;BME280;66439;50.106;10.996;2023-05-14T08:52:38;98721.45;;;14.82;56.08
77381;BME280;66439;50.106;10.996;2023-05-14T08:55:02;98722.23;;;14.84;56.24
77381;BME280;66439;50.106;10.996;2023-05-14T08:57:09;98716.23;;;14.88;56.13
77381;BME280;66439;50.106;10.996;2023-05-14T08:59:15;98714.17;;;14.95;56.30
77381;BME280;66439;50.106;10.996;2023-05-14T09:01:25;98709.23;;;15.04;56.24
77381;BME280;66439;50.106;10.996;2023-05-14T09:03:29;98703.77;;;15.11;55.53
77381;BME280;66439;50.106;10.996;2023-05-14T09:05:35;98702.73;;;15.13;55.26
77381;BME280;66439;50.106;10.996;2023-05-14T09:07:46;98699.77;;;15.17;55.26
77381;BME280;66439;50.106;10.996;2023-05-14T09:09:53;98701.55;;;15.21;55.11
77381;BME280;66439;50.106;10.996;2023-05-14T09:12:01;98704.66;;;15.25;55.15
77381;BME280;66439;50.106;10.996;2023-05-14T09:14:04;98698.19;;;15.26;55.08
77381;BME280;66439;50.106;10.996;2023-05-14T09:16:10;98697.73;;;15.29;55.03
77381;BME280;66439;50.106;10.996;2023-05-14T09:18:16;98694.70;;;15.29;54.81
77381;BME280;66439;50.106;10.996;2023-05-14T09:20:20;98692.97;;;15.32;54.88
77381;BME280;66439;50.106;10.996;2023-05-14T09:22:28;98692.66;;;15.34;54.64
77381;BME280;66439;50.106;10.996;2023-05-14T09:24:38;98689.90;;;15.33;55.01
77381;BME280;66439;50.106;10.996;2023-05-14T09:26:48;98689.30;;;15.34;54.92
77381;BME280;66439;50.106;10.996;2023-05-14T09:28:59;98688.52;;;15.41;55.27
77381;BME280;66439;50.106;10.996;2023-05-14T09:31:08;98687.69;;;15.49;55.20
77381;BME280;66439;50.106;10.996;2023-05-14T09:33:24;98691.77;;;15.54;55.11
77381;BME280;66439;50.106;10.996;2023-05-14T09:35:28;98688.92;;;15.61;55.03
77381;BME280;66439;50.106;10.996;2023-05-14T09:37:35;98690.22;;;15.68;54.87
77381;BME280;66439;50.106;10.996;2023-05-14T09:39:44;98687.25;;;15.74;54.69
77381;BME280;66439;50.106;10.996;2023-05-14T09:41:50;98684.76;;;15.78;54.30
77381;BME280;66439;50.106;10.996;2023-05-14T09:43:57;98687.59;;;15.79;54.42
77381;BME280;66439;50.106;10.996;2023-05-14T09:46:02;98685.24;;;15.79;54.09
77381;BME280;66439;50.106;10.996;2023-05-14T09:48:11;98682.20;;;15.83;54.69
77381;BME280;66439;50.106;10.996;2023-05-14T09:50:16;98679.70;;;15.92;54.85
77381;BME280;66439;50.106;10.996;2023-05-14T09:52:34;98677.35;;;16.03;54.84
77381;BME280;66439;50.106;10.996;2023-05-14T09:54:37;98672.27;;;16.09;54.31
77381;BME280;66439;50.106;10.996;2023-05-14T09:56:43;98668.69;;;16.13;54.00
77381;BME280;66439;50.106;10.996;2023-05-14T09:58:48;98665.14;;;16.18;54.11
77381;BME280;66439;50.106;10.996;2023-05-14T10:00:57;98663.52;;;16.25;53.92
77381;BME280;66439;50.106;10.996;2023-05-14T10:03:06;98662.20;;;16.32;53.59
77381;BME280;66439;50.106;10.996;2023-05-14T10:05:12;98663.09;;;16.38;53.83
77381;BME280;66439;50.106;10.996;2023-05-14T10:07:29;98660.29;;;16.50;54.01
77381;BME280;66439;50.106;10.996;2023-05-14T10:09:38;98651.36;;;16.55;52.55
77381;BME280;66439;50.106;10.996;2023-05-14T10:11:47;98652.79;;;16.54;52.58
77381;BME280;66439;50.106;10.996;2023-05-14T10:16:20;98642.60;;;16.60;51.76
77381;BME280;66439;50.106;10.996;2023-05-14T10:18:24;98642.92;;;16.64;52.44
77381;BME280;66439;50.106;10.996;2023-05-14T10:20:32;98637.55;;;16.71;52.77
77381;BME280;66439;50.106;10.996;2023-05-14T10:22:36;98633.56;;;16.80;53.02
77381;BME280;66439;50.106;10.996;2023-05-14T10:24:39;98628.45;;;16.89;52.82
77381;BME280;66439;50.106;10.996;2023-05-14T10:26:44;98630.02;;;16.95;51.73
77381;BME280;66439;50.106;10.996;2023-05-14T10:28:53;98628.27;;;16.96;51.88
77381;BME280;66439;50.106;10.996;2023-05-14T10:30:58;98628.35;;;16.99;51.66
77381;BME280;66439;50.106;10.996;2023-05-14T10:33:08;98626.84;;;16.99;50.95
77381;BME280;66439;50.106;10.996;2023-05-14T10:35:18;98625.60;;;16.99;51.02
77381;BME280;66439;50.106;10.996;2023-05-14T10:37:24;98619.94;;;17.02;51.09
77381;BME280;66439;50.106;10.996;2023-05-14T10:41:49;98610.02;;;17.02;50.90
77381;BME280;66439;50.106;10.996;2023-05-14T10:43:56;98607.79;;;17.04;50.64
77381;BME280;66439;50.106;10.996;2023-05-14T10:45:59;98610.05;;;17.00;50.48
77381;BME280;66439;50.106;10.996;2023-05-14T10:48:04;98602.11;;;16.94;50.38
77381;BME280;66439;50.106;10.996;2023-05-14T10:50:11;98597.91;;;16.96;50.89
77381;BME280;66439;50.106;10.996;2023-05-14T10:52:29;98594.27;;;17.00;50.33
77381;BME280;66439;50.106;10.996;2023-05-14T10:54:37;98588.48;;;16.98;50.13
77381;BME280;66439;50.106;10.996;2023-05-14T10:56:46;98584.60;;;16.98;50.22
77381;BME280;66439;50.106;10.996;2023-05-14T10:58:49;98579.02;;;17.00;50.07
77381;BME280;66439;50.106;10.996;2023-05-14T11:00:54;98578.66;;;17.05;50.53
77381;BME280;66439;50.106;10.996;2023-05-14T11:02:59;98578.16;;;17.12;50.56
77381;BME280;66439;50.106;10.996;2023-05-14T11:05:04;98578.77;;;17.16;50.44
77381;BME280;66439;50.106;10.996;2023-05-14T11:07:08;98578.71;;;17.16;50.17
77381;BME280;66439;50.106;10.996;2023-05-14T11:09:16;98576.74;;;17.18;50.34
77381;BME280;66439;50.106;10.996;2023-05-14T11:11:31;98573.98;;;17.26;50.13
77381;BME280;66439;50.106;10.996;2023-05-14T11:13:34;98568.53;;;17.29;49.66